Thunder radar more information blitzortung!


Radar de pluja more information rain snow radar


Visita la nostra xarxa de llocs de meteo:

Template documentation
and downloads

And another site



No particular awareness of the weather is required.    There are no Weather-warnings

Pagina Historial Weather Underground text

Diari Resum Novembre 13, 2017 Unitats:  Mètric    Imperial   Tant
« Previous Dia
SegĂźent Dia »
Diari Setmana Mensual Anual Personalitzada
  Maxima: Minima: Media:
Temperatura: 15.5 °C 5.9 °C 11.5 °C
Punt de rosada: 6.6 °C -11.3 °C -5.5 °C
Humitat: 75 % 22 % 32 %
Wind Speed: 20.4 km/h 0.0 km/h 6.9 km/h
RĂ fegues de vent: 20.4 km/h - -
Vent:- - SSW
Pression baro: 1015.8 hPa 1010.0 hPa -
Precipitacions: 0.0 mm    
Historical Graphs
 
 
Dades de taula per Novembre 13, 2017
Temps Temperatura Punt de rosada Pression baro Vent Wind Speed RĂ fegues de vent Humitat Rainfall Rate (Hourly)
00:01 13.3 °C 6.6 °C 1010.0 hPa West 11.1 km/h 11.1 km/h 64 % 0.0 mm
01:10 7.4 °C 3.1 °C 1011.7 hPa Calm   3.2 km/h 74 % 0.0 mm
01:20 7.4 °C 3.3 °C 1011.7 hPa Calm   3.2 km/h 75 % 0.0 mm
01:30 7.2 °C 3.1 °C 1012.8 hPa North 1.6 km/h 3.2 km/h 75 % 0.0 mm
01:40 6.9 °C 2.6 °C 1013.8 hPa NNE 1.6 km/h 4.8 km/h 74 % 0.0 mm
01:50 6.8 °C 2.5 °C 1013.8 hPa NE 1.6 km/h 4.8 km/h 74 % 0.0 mm
02:00 6.6 °C 1.9 °C 1013.8 hPa NW 4.8 km/h 6.4 km/h 72 % 0.0 mm
02:10 7.3 °C 2.6 °C 1013.8 hPa WNW 1.6 km/h 3.2 km/h 72 % 0.0 mm
02:20 7.9 °C 2.8 °C 1013.8 hPa West 1.6 km/h 4.8 km/h 70 % 0.0 mm
02:30 7.9 °C 2.8 °C 1013.8 hPa SSW 3.2 km/h 4.8 km/h 70 % 0.0 mm
02:40 8.2 °C 2.8 °C 1013.8 hPa WSW 3.2 km/h 4.8 km/h 69 % 0.0 mm
02:50 8.6 °C 3.0 °C 1013.8 hPa WSW 3.2 km/h 6.4 km/h 68 % 0.0 mm
03:00 9.6 °C 3.8 °C 1013.8 hPa WSW 3.2 km/h 6.4 km/h 67 % 0.0 mm
03:10 10.3 °C 4.0 °C 1014.8 hPa East 3.2 km/h 4.8 km/h 65 % 0.0 mm
03:20 10.8 °C 4.1 °C 1014.8 hPa East 3.2 km/h 6.4 km/h 63 % 0.0 mm
03:40 11.2 °C 4.2 °C 1015.8 hPa ESE 3.2 km/h 4.8 km/h 62 % 0.0 mm
03:50 12.0 °C 4.7 °C 1015.8 hPa East 1.6 km/h 3.2 km/h 61 % 0.0 mm
04:00 12.0 °C 3.5 °C 1015.8 hPa ENE 4.8 km/h 6.4 km/h 56 % 0.0 mm
04:10 12.4 °C 3.6 °C 1014.8 hPa NE 3.2 km/h 3.2 km/h 55 % 0.0 mm
04:20 12.8 °C 3.4 °C 1014.8 hPa North 1.6 km/h 3.2 km/h 53 % 0.0 mm
10:21 13.1 °C 4.0 °C 1014.8 hPa WNW 5.6 km/h 5.6 km/h 54 % 0.0 mm
10:22 13.1 °C 4.0 °C 1014.8 hPa West 3.7 km/h 3.7 km/h 54 % 0.0 mm
10:27 13.4 °C 4.0 °C 1014.8 hPa ENE 3.7 km/h 3.7 km/h 53 % 0.0 mm
10:32 13.5 °C 3.8 °C 1014.8 hPa West 3.9 km/h 3.9 km/h 52 % 0.0 mm
10:37 13.6 °C 3.7 °C 1014.8 hPa NNE 2.3 km/h 2.3 km/h 51 % 0.0 mm
10:42 13.9 °C 3.9 °C 1014.8 hPa ENE 2.6 km/h 2.6 km/h 51 % 0.0 mm
10:47 13.8 °C 2.9 °C 1014.8 hPa ENE 9.3 km/h 9.3 km/h 48 % 0.0 mm
10:52 13.6 °C 2.8 °C 1015.8 hPa ENE 9.3 km/h 9.3 km/h 48 % 0.0 mm
10:57 13.4 °C 2.3 °C 1015.8 hPa NNE 7.4 km/h 7.4 km/h 47 % 0.0 mm
11:02 13.5 °C 2.4 °C 1015.8 hPa NE 9.5 km/h 9.5 km/h 47 % 0.0 mm
11:07 13.7 °C 2.6 °C 1015.8 hPa SW 3.7 km/h 3.7 km/h 47 % 0.0 mm
11:12 13.7 °C 1.9 °C 1015.8 hPa West 7.4 km/h 7.4 km/h 45 % 0.0 mm
11:17 14.0 °C 2.2 °C 1015.8 hPa WNW 7.4 km/h 7.4 km/h 45 % 0.0 mm
11:22 14.0 °C 1.3 °C 1015.8 hPa NE 7.4 km/h 7.4 km/h 42 % 0.0 mm
11:27 14.2 °C 1.1 °C 1015.8 hPa NE 8.7 km/h 8.7 km/h 41 % 0.0 mm
11:32 14.1 °C 1.1 °C 1015.8 hPa NE 9.5 km/h 9.5 km/h 41 % 0.0 mm
11:37 14.2 °C 0.8 °C 1015.8 hPa ENE 5.6 km/h 5.6 km/h 40 % 0.0 mm
11:42 14.3 °C 1.2 °C 1015.8 hPa NNW 7.4 km/h 7.4 km/h 41 % 0.0 mm
11:47 14.2 °C -0.3 °C 1015.8 hPa North 9.3 km/h 9.3 km/h 37 % 0.0 mm
11:52 14.4 °C -0.1 °C 1015.8 hPa NNE 7.4 km/h 7.4 km/h 37 % 0.0 mm
11:57 14.5 °C -0.4 °C 1015.8 hPa WNW 5.6 km/h 5.6 km/h 36 % 0.0 mm
12:02 14.9 °C -0.1 °C 1015.8 hPa NNW 5.6 km/h 5.6 km/h 36 % 0.0 mm
12:07 15.2 °C 0.2 °C 1015.8 hPa NNE 6.1 km/h 6.1 km/h 36 % 0.0 mm
12:12 15.1 °C 0.1 °C 1015.8 hPa NNE 5.6 km/h 5.6 km/h 36 % 0.0 mm
12:17 15.0 °C -0.8 °C 1015.8 hPa NNW 9.3 km/h 9.3 km/h 34 % 0.0 mm
12:22 14.8 °C -0.9 °C 1014.8 hPa NE 9.3 km/h 9.3 km/h 34 % 0.0 mm
12:27 14.8 °C -0.9 °C 1014.8 hPa North 11.1 km/h 11.1 km/h 34 % 0.0 mm
12:32 14.9 °C -1.3 °C 1014.8 hPa NW 5.6 km/h 5.6 km/h 33 % 0.0 mm
12:37 15.0 °C -1.2 °C 1014.8 hPa NNE 10.3 km/h 10.3 km/h 33 % 0.0 mm
12:42 14.9 °C -1.3 °C 1014.8 hPa North 9.3 km/h 9.3 km/h 33 % 0.0 mm
12:48 15.0 °C -1.2 °C 1014.8 hPa NNE 7.6 km/h 7.6 km/h 33 % 0.0 mm
12:53 14.9 °C -1.7 °C 1014.8 hPa North 13.0 km/h 13.0 km/h 32 % 0.0 mm
12:58 15.0 °C -1.6 °C 1014.8 hPa NE 7.4 km/h 7.4 km/h 32 % 0.0 mm
13:03 15.0 °C -1.6 °C 1014.8 hPa ENE 9.3 km/h 9.3 km/h 32 % 0.0 mm
13:08 15.0 °C -1.6 °C 1014.8 hPa ENE 11.1 km/h 11.1 km/h 32 % 0.0 mm
13:13 15.0 °C -2.0 °C 1014.8 hPa NNE 13.0 km/h 13.0 km/h 31 % 0.0 mm
13:18 15.0 °C -2.0 °C 1014.8 hPa North 14.8 km/h 14.8 km/h 31 % 0.0 mm
13:23 15.0 °C -2.0 °C 1014.8 hPa NNE 9.3 km/h 9.3 km/h 31 % 0.0 mm
13:28 15.0 °C -2.0 °C 1014.8 hPa NE 13.7 km/h 13.7 km/h 31 % 0.0 mm
13:33 15.0 °C -2.4 °C 1014.8 hPa ENE 11.1 km/h 11.1 km/h 30 % 0.0 mm
13:38 15.1 °C -2.4 °C 1014.8 hPa WNW 9.5 km/h 9.5 km/h 30 % 0.0 mm
13:43 15.0 °C -2.4 °C 1014.8 hPa NNW 7.4 km/h 7.4 km/h 30 % 0.0 mm
13:48 15.0 °C -2.4 °C 1014.8 hPa NNW 9.3 km/h 9.3 km/h 30 % 0.0 mm
13:53 15.0 °C -2.4 °C 1014.8 hPa NE 4.7 km/h 4.7 km/h 30 % 0.0 mm
13:58 15.1 °C -2.4 °C 1014.8 hPa ENE 7.9 km/h 7.9 km/h 30 % 0.0 mm
14:03 15.0 °C -2.4 °C 1014.8 hPa North 6.1 km/h 6.1 km/h 30 % 0.0 mm
14:08 15.0 °C -2.4 °C 1014.8 hPa ENE 7.4 km/h 7.4 km/h 30 % 0.0 mm
14:13 14.9 °C -3.5 °C 1014.8 hPa NNW 10.3 km/h 10.3 km/h 28 % 0.0 mm
14:18 15.1 °C -2.4 °C 1014.8 hPa SW 4.7 km/h 4.7 km/h 30 % 0.0 mm
14:23 15.2 °C -2.7 °C 1014.8 hPa SW 11.1 km/h 11.1 km/h 29 % 0.0 mm
14:28 15.4 °C -2.6 °C 1014.8 hPa NW 6.1 km/h 6.1 km/h 29 % 0.0 mm
14:33 15.3 °C -2.7 °C 1014.8 hPa SSE 7.4 km/h 7.4 km/h 29 % 0.0 mm
14:38 15.2 °C -3.2 °C 1014.8 hPa North 3.2 km/h 3.2 km/h 28 % 0.0 mm
14:43 15.4 °C -2.6 °C 1014.8 hPa NNW 6.4 km/h 6.4 km/h 29 % 0.0 mm
14:48 15.5 °C -2.5 °C 1014.8 hPa North 13.0 km/h 13.0 km/h 29 % 0.0 mm
14:53 15.4 °C -3.1 °C 1014.8 hPa NNE 5.6 km/h 5.6 km/h 28 % 0.0 mm
14:58 15.3 °C -3.1 °C 1014.8 hPa NE 7.4 km/h 7.4 km/h 28 % 0.0 mm
15:03 15.1 °C -3.8 °C 1014.8 hPa NW 16.7 km/h 16.7 km/h 27 % 0.0 mm
15:08 15.0 °C -3.9 °C 1014.8 hPa ENE 7.4 km/h 7.4 km/h 27 % 0.0 mm
15:13 15.0 °C -3.4 °C 1014.8 hPa SW 13.0 km/h 13.0 km/h 28 % 0.0 mm
15:18 15.2 °C -3.7 °C 1014.8 hPa NNW 10.0 km/h 10.0 km/h 27 % 0.0 mm
15:23 15.1 °C -3.8 °C 1014.8 hPa ESE 3.7 km/h 3.7 km/h 27 % 0.0 mm
15:28 15.0 °C -3.9 °C 1014.8 hPa North 9.3 km/h 9.3 km/h 27 % 0.0 mm
15:33 15.0 °C -3.9 °C 1014.8 hPa NW 10.0 km/h 10.0 km/h 27 % 0.0 mm
15:38 14.8 °C -4.1 °C 1014.8 hPa WNW 11.1 km/h 11.1 km/h 27 % 0.0 mm
15:43 14.9 °C -3.9 °C 1014.8 hPa NE 5.8 km/h 5.8 km/h 27 % 0.0 mm
15:48 14.9 °C -3.9 °C 1014.8 hPa WNW 9.3 km/h 9.3 km/h 27 % 0.0 mm
15:53 15.0 °C -3.9 °C 1014.8 hPa NNW 5.6 km/h 5.6 km/h 27 % 0.0 mm
15:58 15.0 °C -3.9 °C 1014.8 hPa WSW 5.8 km/h 5.8 km/h 27 % 0.0 mm
16:03 15.0 °C -4.4 °C 1014.8 hPa WNW 7.4 km/h 7.4 km/h 26 % 0.0 mm
16:08 14.9 °C -4.4 °C 1014.8 hPa WSW 13.0 km/h 13.0 km/h 26 % 0.0 mm
16:13 14.8 °C -4.6 °C 1014.8 hPa NNW 7.4 km/h 7.4 km/h 26 % 0.0 mm
16:18 14.7 °C -4.6 °C 1014.8 hPa WSW 9.3 km/h 9.3 km/h 26 % 0.0 mm
16:23 14.6 °C -5.2 °C 1014.8 hPa NNW 9.3 km/h 9.3 km/h 25 % 0.0 mm
16:28 14.5 °C -5.3 °C 1014.8 hPa WNW 5.6 km/h 5.6 km/h 25 % 0.0 mm
16:33 14.4 °C -5.4 °C 1014.8 hPa South 7.4 km/h 7.4 km/h 25 % 0.0 mm
16:38 14.5 °C -4.8 °C 1014.8 hPa West 7.4 km/h 7.4 km/h 26 % 0.0 mm
16:43 14.4 °C -5.4 °C 1014.8 hPa WSW 4.2 km/h 4.2 km/h 25 % 0.0 mm
16:48 14.3 °C -5.5 °C 1014.8 hPa West 7.4 km/h 7.4 km/h 25 % 0.0 mm
16:53 14.1 °C -5.7 °C 1015.8 hPa SSW 9.3 km/h 9.3 km/h 25 % 0.0 mm
16:58 14.0 °C -5.8 °C 1015.8 hPa WSW 9.3 km/h 9.3 km/h 25 % 0.0 mm
17:03 13.9 °C -5.8 °C 1015.8 hPa South 11.4 km/h 11.4 km/h 25 % 0.0 mm
17:08 13.6 °C -6.6 °C 1015.8 hPa WSW 20.4 km/h 20.4 km/h 24 % 0.0 mm
17:13 13.3 °C -6.9 °C 1015.8 hPa WSW 9.3 km/h 9.3 km/h 24 % 0.0 mm
17:18 13.1 °C -7.6 °C 1015.8 hPa WSW 11.1 km/h 11.1 km/h 23 % 0.0 mm
17:23 12.9 °C -7.8 °C 1015.8 hPa WNW 9.3 km/h 9.3 km/h 23 % 0.0 mm
17:28 12.7 °C -7.9 °C 1015.8 hPa NW 12.2 km/h 12.2 km/h 23 % 0.0 mm
17:33 12.5 °C -8.1 °C 1015.8 hPa WNW 8.7 km/h 8.7 km/h 23 % 0.0 mm
17:38 12.4 °C -8.2 °C 1015.8 hPa WNW 13.0 km/h 13.0 km/h 23 % 0.0 mm
17:43 12.2 °C -8.4 °C 1015.8 hPa WNW 9.5 km/h 9.5 km/h 23 % 0.0 mm
17:48 12.1 °C -8.4 °C 1015.8 hPa WSW 5.6 km/h 5.6 km/h 23 % 0.0 mm
17:53 12.0 °C -8.6 °C 1015.8 hPa West 11.1 km/h 11.1 km/h 23 % 0.0 mm
17:58 11.9 °C -9.2 °C 1015.8 hPa North 9.3 km/h 9.3 km/h 22 % 0.0 mm
18:03 11.8 °C -8.7 °C 1015.8 hPa WSW 7.9 km/h 7.9 km/h 23 % 0.0 mm
18:08 11.6 °C -8.9 °C 1015.8 hPa WSW 7.4 km/h 7.4 km/h 23 % 0.0 mm
18:13 11.5 °C -8.9 °C 1015.8 hPa WNW 6.1 km/h 6.1 km/h 23 % 0.0 mm
18:18 11.4 °C -9.1 °C 1015.8 hPa SW 13.0 km/h 13.0 km/h 23 % 0.0 mm
18:20 8.1 °C -10.8 °C 1014.8 hPa West 4.8 km/h 4.8 km/h 25 % 0.0 mm
18:23 11.3 °C -9.1 °C 1015.8 hPa West 9.3 km/h 9.3 km/h 23 % 0.0 mm
18:28 11.3 °C -9.1 °C 1015.8 hPa West 7.6 km/h 7.6 km/h 23 % 0.0 mm
18:30 7.9 °C -10.4 °C 1014.8 hPa West 9.7 km/h 9.7 km/h 26 % 0.0 mm
18:33 11.2 °C -9.2 °C 1015.8 hPa West 11.1 km/h 11.1 km/h 23 % 0.0 mm
18:38 11.1 °C -9.3 °C 1015.8 hPa WSW 9.3 km/h 9.3 km/h 23 % 0.0 mm
18:40 7.6 °C -10.7 °C 1014.8 hPa West 4.8 km/h 6.4 km/h 26 % 0.0 mm
18:43 11.0 °C -9.4 °C 1015.8 hPa WNW 5.6 km/h 5.6 km/h 23 % 0.0 mm
18:48 10.9 °C -9.4 °C 1015.8 hPa WNW 5.6 km/h 5.6 km/h 23 % 0.0 mm
18:50 7.6 °C -10.7 °C 1014.8 hPa WSW 4.8 km/h 12.9 km/h 26 % 0.0 mm
18:53 10.8 °C -9.6 °C 1015.8 hPa WNW 9.3 km/h 9.3 km/h 23 % 0.0 mm
18:58 10.7 °C -9.6 °C 1015.8 hPa West 9.3 km/h 9.3 km/h 23 % 0.0 mm
19:03 10.6 °C -9.7 °C 1015.8 hPa SW 5.6 km/h 5.6 km/h 23 % 0.0 mm
19:08 10.5 °C -9.8 °C 1015.8 hPa West 5.6 km/h 5.6 km/h 23 % 0.0 mm
19:10 7.2 °C -10.6 °C 1014.8 hPa WSW 4.8 km/h 6.4 km/h 27 % 0.0 mm
19:13 10.4 °C -9.9 °C 1015.8 hPa West 7.4 km/h 7.4 km/h 23 % 0.0 mm
19:18 10.5 °C -9.8 °C 1015.8 hPa WNW 5.0 km/h 5.0 km/h 23 % 0.0 mm
19:20 6.8 °C -10.9 °C 1014.8 hPa WSW 3.2 km/h 6.4 km/h 27 % 0.0 mm
19:23 10.6 °C -9.7 °C 1015.8 hPa WSW 5.6 km/h 5.6 km/h 23 % 0.0 mm
19:28 10.3 °C -9.9 °C 1015.8 hPa WSW 3.7 km/h 3.7 km/h 23 % 0.0 mm
19:30 6.7 °C -10.6 °C 1015.8 hPa WSW 3.2 km/h 6.4 km/h 28 % 0.0 mm
19:33 10.2 °C -10.1 °C 1015.8 hPa West 6.1 km/h 6.1 km/h 23 % 0.0 mm
19:38 10.2 °C -10.1 °C 1015.8 hPa WSW 9.3 km/h 9.3 km/h 23 % 0.0 mm
19:40 6.7 °C -10.6 °C 1015.8 hPa WSW 1.6 km/h 4.8 km/h 28 % 0.0 mm
19:43 10.1 °C -10.2 °C 1015.8 hPa WSW 7.4 km/h 7.4 km/h 23 % 0.0 mm
19:48 9.9 °C -10.3 °C 1015.8 hPa West 3.7 km/h 3.7 km/h 23 % 0.0 mm
19:50 6.9 °C -10.8 °C 1015.8 hPa WSW 3.2 km/h 3.2 km/h 27 % 0.0 mm
19:53 9.9 °C -10.3 °C 1015.8 hPa SW 3.7 km/h 3.7 km/h 23 % 0.0 mm
19:58 9.8 °C -10.4 °C 1015.8 hPa West 5.6 km/h 5.6 km/h 23 % 0.0 mm
19:59 9.8 °C -10.4 °C 1015.8 hPa West 5.6 km/h 5.6 km/h 23 % 0.0 mm
20:00 6.5 °C -10.7 °C 1015.8 hPa Calm   4.8 km/h 28 % 0.0 mm
20:04 9.9 °C -10.3 °C 1014.8 hPa WSW 5.6 km/h 5.6 km/h 23 % 0.0 mm
20:09 10.0 °C -10.2 °C 1014.8 hPa West 6.9 km/h 6.9 km/h 23 % 0.0 mm
20:10 6.3 °C -10.9 °C 1015.8 hPa SW 4.8 km/h 4.8 km/h 28 % 0.0 mm
20:14 10.0 °C -10.2 °C 1014.8 hPa WSW 3.7 km/h 3.7 km/h 23 % 0.0 mm
20:19 9.9 °C -10.3 °C 1015.8 hPa WNW 3.5 km/h 3.5 km/h 23 % 0.0 mm
20:20 6.0 °C -11.2 °C 1015.8 hPa SW 4.8 km/h 4.8 km/h 28 % 0.0 mm
20:24 9.9 °C -10.3 °C 1015.8 hPa ENE 3.7 km/h 3.7 km/h 23 % 0.0 mm
20:29 9.9 °C -10.3 °C 1015.8 hPa NNE 9.3 km/h 9.3 km/h 23 % 0.0 mm
20:30 6.0 °C -10.7 °C 1015.8 hPa WSW 3.2 km/h 4.8 km/h 29 % 0.0 mm
20:34 9.8 °C -10.4 °C 1014.8 hPa NNW 7.4 km/h 7.4 km/h 23 % 0.0 mm
20:39 9.9 °C -10.3 °C 1014.8 hPa SW 3.7 km/h 3.7 km/h 23 % 0.0 mm
20:40 6.5 °C -10.3 °C 1015.8 hPa West 1.6 km/h 4.8 km/h 29 % 0.0 mm
20:44 9.9 °C -10.3 °C 1014.8 hPa SW 3.7 km/h 3.7 km/h 23 % 0.0 mm
20:49 9.9 °C -9.8 °C 1014.8 hPa WSW 5.6 km/h 5.6 km/h 24 % 0.0 mm
20:50 6.8 °C -10.1 °C 1015.8 hPa WSW 3.2 km/h 4.8 km/h 29 % 0.0 mm
20:54 10.0 °C -9.7 °C 1014.8 hPa SW 7.4 km/h 7.4 km/h 24 % 0.0 mm
20:59 10.1 °C -10.2 °C 1014.8 hPa WSW 7.4 km/h 7.4 km/h 23 % 0.0 mm
21:00 6.7 °C -10.1 °C 1015.8 hPa SW 1.6 km/h 4.8 km/h 29 % 0.0 mm
21:04 10.2 °C -9.5 °C 1014.8 hPa West 10.3 km/h 10.3 km/h 24 % 0.0 mm
21:09 10.2 °C -10.1 °C 1014.8 hPa West 9.5 km/h 9.5 km/h 23 % 0.0 mm
21:10 5.9 °C -10.8 °C 1015.8 hPa WSW 3.2 km/h 4.8 km/h 29 % 0.0 mm
21:14 10.1 °C -10.2 °C 1014.8 hPa WSW 9.3 km/h 9.3 km/h 23 % 0.0 mm
21:19 10.1 °C -10.2 °C 1014.8 hPa SW 11.1 km/h 11.1 km/h 23 % 0.0 mm
21:20 6.0 °C -10.3 °C 1015.8 hPa WSW 3.2 km/h 4.8 km/h 30 % 0.0 mm
21:24 10.0 °C -10.2 °C 1014.8 hPa WSW 11.1 km/h 11.1 km/h 23 % 0.0 mm
21:29 10.0 °C -10.2 °C 1014.8 hPa SW 9.3 km/h 9.3 km/h 23 % 0.0 mm
21:30 6.2 °C -10.1 °C 1015.8 hPa WSW 4.8 km/h 9.7 km/h 30 % 0.0 mm
21:34 9.9 °C -10.3 °C 1014.8 hPa WSW 9.3 km/h 9.3 km/h 23 % 0.0 mm
21:39 9.8 °C -10.4 °C 1014.8 hPa West 8.7 km/h 8.7 km/h 23 % 0.0 mm
21:40 6.3 °C -10.1 °C 1015.8 hPa WSW 4.8 km/h 9.7 km/h 30 % 0.0 mm
21:44 10.0 °C -10.2 °C 1014.8 hPa West 13.0 km/h 13.0 km/h 23 % 0.0 mm
21:49 9.8 °C -10.4 °C 1014.8 hPa WSW 5.6 km/h 5.6 km/h 23 % 0.0 mm
21:50 6.3 °C -10.1 °C 1015.8 hPa WSW 4.8 km/h 8.0 km/h 30 % 0.0 mm
21:54 9.6 °C -10.6 °C 1014.8 hPa West 6.1 km/h 6.1 km/h 23 % 0.0 mm
21:59 9.5 °C -10.7 °C 1014.8 hPa WSW 5.6 km/h 5.6 km/h 23 % 0.0 mm
22:00 6.3 °C -10.1 °C 1015.8 hPa West 3.2 km/h 6.4 km/h 30 % 0.0 mm
22:04 9.4 °C -10.7 °C 1015.8 hPa SSW 7.4 km/h 7.4 km/h 23 % 0.0 mm
22:09 9.3 °C -10.8 °C 1015.8 hPa WSW 7.4 km/h 7.4 km/h 23 % 0.0 mm
22:10 6.2 °C -10.1 °C 1014.8 hPa West 4.8 km/h 9.7 km/h 30 % 0.0 mm
22:14 9.4 °C -10.7 °C 1015.8 hPa SW 7.9 km/h 7.9 km/h 23 % 0.0 mm
22:19 9.3 °C -10.8 °C 1015.8 hPa WSW 7.4 km/h 7.4 km/h 23 % 0.0 mm
22:20 9.3 °C -10.8 °C 1015.8 hPa WSW 7.4 km/h 7.4 km/h 23 % 0.0 mm
22:25 9.1 °C -11.0 °C 1015.8 hPa WSW 7.4 km/h 7.4 km/h 23 % 0.0 mm
22:30 9.1 °C -11.0 °C 1015.8 hPa West 5.6 km/h 5.6 km/h 23 % 0.0 mm
22:35 9.0 °C -11.1 °C 1015.8 hPa WSW 5.6 km/h 5.6 km/h 23 % 0.0 mm
22:40 9.0 °C -11.1 °C 1015.8 hPa WNW 10.0 km/h 10.0 km/h 23 % 0.0 mm
22:45 9.2 °C -10.9 °C 1015.8 hPa WSW 11.1 km/h 11.1 km/h 23 % 0.0 mm
22:50 9.5 °C -10.7 °C 1015.8 hPa WSW 11.1 km/h 11.1 km/h 23 % 0.0 mm
22:55 9.2 °C -10.9 °C 1015.8 hPa SSW 7.4 km/h 7.4 km/h 23 % 0.0 mm
23:00 8.9 °C -11.2 °C 1015.8 hPa WSW 5.6 km/h 5.8 km/h 23 % 0.0 mm
23:05 8.7 °C -11.3 °C 1015.8 hPa SW 5.6 km/h 5.6 km/h 23 % 0.0 mm
23:10 8.7 °C -11.3 °C 1015.8 hPa WSW 5.6 km/h 5.6 km/h 23 % 0.0 mm
23:15 8.7 °C -10.8 °C 1015.8 hPa WSW 7.4 km/h 7.4 km/h 24 % 0.0 mm
23:20 8.6 °C -10.9 °C 1015.8 hPa WSW 4.8 km/h 9.7 km/h 24 % 0.0 mm
23:25 8.7 °C -10.8 °C 1015.8 hPa WSW 7.4 km/h 7.9 km/h 24 % 0.0 mm
23:30 8.8 °C -10.7 °C 1015.8 hPa WSW 5.8 km/h 5.8 km/h 24 % 0.0 mm
23:35 8.6 °C -10.9 °C 1015.8 hPa WSW 4.8 km/h 9.7 km/h 24 % 0.0 mm
23:40 8.4 °C -11.1 °C 1015.8 hPa WSW 3.2 km/h 4.8 km/h 24 % 0.0 mm
23:45 8.2 °C -10.7 °C 1015.8 hPa SW 3.2 km/h 9.7 km/h 25 % 0.0 mm
23:50 8.1 °C -10.8 °C 1015.8 hPa West 9.3 km/h 9.3 km/h 25 % 0.0 mm
23:55 8.1 °C -10.8 °C 1015.8 hPa SW 7.4 km/h 7.4 km/h 25 % 0.0 mm
Meteo Sesrovires
Elogis d' Weather Underground - 3.5 mb

Guio original per  Jim McMurry - jmcmurry@mwt.net Adaptat per a la plantilla per  Wim van der Kuil - Leuven-Template.eu

Trobareu la nostra informacio del temps tambe a:

Weather Underground

AWEKAS